sensor_id;sensor_type;location;lat;lon;timestamp;temperature;humidity
17266;DHT22;8749;47.076;15.412;2022-08-19T00:00:08;24.00;97.50
17266;DHT22;8749;47.076;15.412;2022-08-19T00:02:36;24.00;97.90
17266;DHT22;8749;47.076;15.412;2022-08-19T00:05:04;24.00;97.90
17266;DHT22;8749;47.076;15.412;2022-08-19T00:07:31;24.10;97.80
17266;DHT22;8749;47.076;15.412;2022-08-19T00:09:58;24.10;97.90
17266;DHT22;8749;47.076;15.412;2022-08-19T00:12:25;24.30;97.80
17266;DHT22;8749;47.076;15.412;2022-08-19T00:14:53;24.30;97.80
17266;DHT22;8749;47.076;15.412;2022-08-19T00:17:20;24.30;97.80
17266;DHT22;8749;47.076;15.412;2022-08-19T00:19:47;24.30;97.80
17266;DHT22;8749;47.076;15.412;2022-08-19T00:22:14;24.30;97.80
17266;DHT22;8749;47.076;15.412;2022-08-19T00:24:43;24.30;97.50
17266;DHT22;8749;47.076;15.412;2022-08-19T00:27:10;24.30;97.70
17266;DHT22;8749;47.076;15.412;2022-08-19T00:29:37;24.30;97.90
17266;DHT22;8749;47.076;15.412;2022-08-19T00:32:06;24.30;98.40
17266;DHT22;8749;47.076;15.412;2022-08-19T00:34:33;24.20;98.20
17266;DHT22;8749;47.076;15.412;2022-08-19T00:37:00;24.20;98.40
17266;DHT22;8749;47.076;15.412;2022-08-19T00:39:27;24.20;98.30
17266;DHT22;8749;47.076;15.412;2022-08-19T00:41:55;24.20;98.40
17266;DHT22;8749;47.076;15.412;2022-08-19T00:44:24;24.10;98.50
17266;DHT22;8749;47.076;15.412;2022-08-19T00:46:53;24.20;98.40
17266;DHT22;8749;47.076;15.412;2022-08-19T00:49:26;24.20;98.50
17266;DHT22;8749;47.076;15.412;2022-08-19T00:51:57;24.10;98.70
17266;DHT22;8749;47.076;15.412;2022-08-19T00:54:26;24.10;99.10
17266;DHT22;8749;47.076;15.412;2022-08-19T00:56:53;24.00;99.30
17266;DHT22;8749;47.076;15.412;2022-08-19T00:59:20;23.90;99.60
17266;DHT22;8749;47.076;15.412;2022-08-19T01:01:47;23.80;99.90
17266;DHT22;8749;47.076;15.412;2022-08-19T01:04:14;23.80;99.90
17266;DHT22;8749;47.076;15.412;2022-08-19T01:06:43;23.50;99.90
17266;DHT22;8749;47.076;15.412;2022-08-19T01:09:09;23.10;99.90
17266;DHT22;8749;47.076;15.412;2022-08-19T01:11:41;23.00;99.90
17266;DHT22;8749;47.076;15.412;2022-08-19T01:14:10;22.90;99.90
17266;DHT22;8749;47.076;15.412;2022-08-19T01:16:39;22.70;99.90
17266;DHT22;8749;47.076;15.412;2022-08-19T01:19:12;22.90;99.90
17266;DHT22;8749;47.076;15.412;2022-08-19T01:21:47;23.10;99.90
17266;DHT22;8749;47.076;15.412;2022-08-19T01:24:18;23.30;99.90
17266;DHT22;8749;47.076;15.412;2022-08-19T01:26:47;23.50;99.90
17266;DHT22;8749;47.076;15.412;2022-08-19T01:29:14;23.50;99.90
17266;DHT22;8749;47.076;15.412;2022-08-19T01:31:41;23.60;99.90
17266;DHT22;8749;47.076;15.412;2022-08-19T01:34:08;23.70;99.90
17266;DHT22;8749;47.076;15.412;2022-08-19T01:36:38;23.70;99.90
17266;DHT22;8749;47.076;15.412;2022-08-19T01:39:10;23.80;99.90
17266;DHT22;8749;47.076;15.412;2022-08-19T01:41:39;23.70;99.90
17266;DHT22;8749;47.076;15.412;2022-08-19T01:44:08;23.60;99.90
17266;DHT22;8749;47.076;15.412;2022-08-19T01:46:35;23.70;99.90
17266;DHT22;8749;47.076;15.412;2022-08-19T01:49:04;23.70;99.90
17266;DHT22;8749;47.076;15.412;2022-08-19T01:51:32;23.70;99.90
17266;DHT22;8749;47.076;15.412;2022-08-19T01:53:59;23.70;99.90
17266;DHT22;8749;47.076;15.412;2022-08-19T01:56:26;23.80;99.90
17266;DHT22;8749;47.076;15.412;2022-08-19T01:58:56;23.80;99.90
17266;DHT22;8749;47.076;15.412;2022-08-19T02:01:24;23.70;99.90
17266;DHT22;8749;47.076;15.412;2022-08-19T02:03:51;23.70;99.90
17266;DHT22;8749;47.076;15.412;2022-08-19T02:06:19;23.70;99.90
17266;DHT22;8749;47.076;15.412;2022-08-19T02:08:46;23.70;99.90
17266;DHT22;8749;47.076;15.412;2022-08-19T02:11:19;23.80;99.90
17266;DHT22;8749;47.076;15.412;2022-08-19T02:13:47;23.90;99.90
17266;DHT22;8749;47.076;15.412;2022-08-19T02:16:16;23.80;99.90
17266;DHT22;8749;47.076;15.412;2022-08-19T02:18:43;23.70;99.90
17266;DHT22;8749;47.076;15.412;2022-08-19T02:21:10;23.70;99.90
17266;DHT22;8749;47.076;15.412;2022-08-19T02:23:37;23.60;99.90
17266;DHT22;8749;47.076;15.412;2022-08-19T02:26:05;23.60;99.90
17266;DHT22;8749;47.076;15.412;2022-08-19T02:28:32;23.60;99.90
17266;DHT22;8749;47.076;15.412;2022-08-19T02:30:59;23.60;99.90
17266;DHT22;8749;47.076;15.412;2022-08-19T02:33:29;23.70;99.90
17266;DHT22;8749;47.076;15.412;2022-08-19T02:35:56;23.60;99.90
17266;DHT22;8749;47.076;15.412;2022-08-19T02:38:23;23.70;99.90
17266;DHT22;8749;47.076;15.412;2022-08-19T02:40:54;23.80;99.90
17266;DHT22;8749;47.076;15.412;2022-08-19T02:43:21;23.70;99.90
17266;DHT22;8749;47.076;15.412;2022-08-19T02:45:49;23.30;99.90
17266;DHT22;8749;47.076;15.412;2022-08-19T02:48:17;23.00;99.90
17266;DHT22;8749;47.076;15.412;2022-08-19T02:50:47;23.10;99.90
17266;DHT22;8749;47.076;15.412;2022-08-19T02:53:17;23.20;99.90
17266;DHT22;8749;47.076;15.412;2022-08-19T02:55:44;23.10;99.90
17266;DHT22;8749;47.076;15.412;2022-08-19T02:58:12;23.20;99.90
17266;DHT22;8749;47.076;15.412;2022-08-19T03:00:46;23.20;99.90
17266;DHT22;8749;47.076;15.412;2022-08-19T03:03:14;23.00;99.90
17266;DHT22;8749;47.076;15.412;2022-08-19T03:05:42;22.90;99.90
17266;DHT22;8749;47.076;15.412;2022-08-19T03:08:10;22.90;99.90
17266;DHT22;8749;47.076;15.412;2022-08-19T03:10:42;22.80;99.90
17266;DHT22;8749;47.076;15.412;2022-08-19T03:13:14;22.70;99.90
17266;DHT22;8749;47.076;15.412;2022-08-19T03:15:42;22.70;99.90
17266;DHT22;8749;47.076;15.412;2022-08-19T03:18:10;22.70;99.90
17266;DHT22;8749;47.076;15.412;2022-08-19T03:20:42;22.90;99.90
17266;DHT22;8749;47.076;15.412;2022-08-19T03:23:10;22.90;99.90
17266;DHT22;8749;47.076;15.412;2022-08-19T03:25:39;22.80;99.90
17266;DHT22;8749;47.076;15.412;2022-08-19T03:28:09;23.00;99.90
17266;DHT22;8749;47.076;15.412;2022-08-19T03:30:37;23.10;99.90
17266;DHT22;8749;47.076;15.412;2022-08-19T03:33:05;23.30;99.90
17266;DHT22;8749;47.076;15.412;2022-08-19T03:35:32;23.30;99.90
17266;DHT22;8749;47.076;15.412;2022-08-19T03:38:02;23.40;99.90
17266;DHT22;8749;47.076;15.412;2022-08-19T03:40:30;23.10;99.90
17266;DHT22;8749;47.076;15.412;2022-08-19T03:42:57;22.90;99.90
17266;DHT22;8749;47.076;15.412;2022-08-19T03:45:24;22.90;99.90
17266;DHT22;8749;47.076;15.412;2022-08-19T03:47:51;22.90;99.90
17266;DHT22;8749;47.076;15.412;2022-08-19T03:50:18;22.80;99.90
17266;DHT22;8749;47.076;15.412;2022-08-19T03:52:48;22.80;99.90
17266;DHT22;8749;47.076;15.412;2022-08-19T03:55:17;22.80;99.90
17266;DHT22;8749;47.076;15.412;2022-08-19T03:57:45;22.80;99.90
17266;DHT22;8749;47.076;15.412;2022-08-19T04:00:15;23.00;99.90
17266;DHT22;8749;47.076;15.412;2022-08-19T04:02:42;23.10;99.90
17266;DHT22;8749;47.076;15.412;2022-08-19T04:05:09;23.10;99.90
17266;DHT22;8749;47.076;15.412;2022-08-19T04:07:36;23.20;99.90
17266;DHT22;8749;47.076;15.412;2022-08-19T04:10:04;23.30;99.90
17266;DHT22;8749;47.076;15.412;2022-08-19T04:12:31;23.40;99.90
17266;DHT22;8749;47.076;15.412;2022-08-19T04:15:00;23.40;99.90
17266;DHT22;8749;47.076;15.412;2022-08-19T04:17:26;23.50;99.90
17266;DHT22;8749;47.076;15.412;2022-08-19T04:19:53;23.50;99.90
17266;DHT22;8749;47.076;15.412;2022-08-19T04:22:20;23.50;99.90
17266;DHT22;8749;47.076;15.412;2022-08-19T04:24:47;23.40;99.90
17266;DHT22;8749;47.076;15.412;2022-08-19T04:27:15;23.50;99.90
17266;DHT22;8749;47.076;15.412;2022-08-19T04:29:42;23.60;99.90
17266;DHT22;8749;47.076;15.412;2022-08-19T04:32:10;23.50;99.90
17266;DHT22;8749;47.076;15.412;2022-08-19T04:34:40;23.50;99.90
17266;DHT22;8749;47.076;15.412;2022-08-19T04:37:08;23.70;99.90
17266;DHT22;8749;47.076;15.412;2022-08-19T04:39:37;23.80;99.90
17266;DHT22;8749;47.076;15.412;2022-08-19T04:42:22;23.80;99.90
17266;DHT22;8749;47.076;15.412;2022-08-19T04:45:10;23.80;99.90
17266;DHT22;8749;47.076;15.412;2022-08-19T04:47:40;23.80;99.90
17266;DHT22;8749;47.076;15.412;2022-08-19T04:50:07;23.90;99.90
17266;DHT22;8749;47.076;15.412;2022-08-19T04:52:35;23.90;99.90
17266;DHT22;8749;47.076;15.412;2022-08-19T04:55:03;24.00;99.90
17266;DHT22;8749;47.076;15.412;2022-08-19T04:57:32;23.90;99.90
17266;DHT22;8749;47.076;15.412;2022-08-19T04:59:58;24.00;99.90
17266;DHT22;8749;47.076;15.412;2022-08-19T05:02:25;24.00;99.90
17266;DHT22;8749;47.076;15.412;2022-08-19T05:04:58;24.10;99.90
17266;DHT22;8749;47.076;15.412;2022-08-19T05:07:26;24.00;99.90
17266;DHT22;8749;47.076;15.412;2022-08-19T05:09:54;24.00;99.90
17266;DHT22;8749;47.076;15.412;2022-08-19T05:12:23;24.10;99.90
17266;DHT22;8749;47.076;15.412;2022-08-19T05:14:53;24.20;99.90
17266;DHT22;8749;47.076;15.412;2022-08-19T05:17:20;24.30;99.90
17266;DHT22;8749;47.076;15.412;2022-08-19T05:19:48;24.40;99.90
17266;DHT22;8749;47.076;15.412;2022-08-19T05:22:37;24.50;99.90
17266;DHT22;8749;47.076;15.412;2022-08-19T05:25:06;24.60;99.90
17266;DHT22;8749;47.076;15.412;2022-08-19T05:27:33;24.70;99.90
17266;DHT22;8749;47.076;15.412;2022-08-19T05:30:01;24.60;99.90
17266;DHT22;8749;47.076;15.412;2022-08-19T05:32:28;24.70;99.90
17266;DHT22;8749;47.076;15.412;2022-08-19T05:34:55;24.80;99.90
17266;DHT22;8749;47.076;15.412;2022-08-19T05:37:22;24.90;99.90
17266;DHT22;8749;47.076;15.412;2022-08-19T05:40:08;25.00;99.60
17266;DHT22;8749;47.076;15.412;2022-08-19T05:42:35;25.10;99.30
17266;DHT22;8749;47.076;15.412;2022-08-19T05:45:03;25.10;99.20
17266;DHT22;8749;47.076;15.412;2022-08-19T05:47:31;25.00;99.40
17266;DHT22;8749;47.076;15.412;2022-08-19T05:49:57;25.10;99.40
17266;DHT22;8749;47.076;15.412;2022-08-19T05:52:24;25.10;99.30
17266;DHT22;8749;47.076;15.412;2022-08-19T05:54:54;25.20;99.30
17266;DHT22;8749;47.076;15.412;2022-08-19T05:57:23;25.30;99.20
17266;DHT22;8749;47.076;15.412;2022-08-19T05:59:51;25.30;99.00
17266;DHT22;8749;47.076;15.412;2022-08-19T06:02:19;25.40;98.20
17266;DHT22;8749;47.076;15.412;2022-08-19T06:04:46;25.40;97.40
17266;DHT22;8749;47.076;15.412;2022-08-19T06:07:13;25.50;97.20
17266;DHT22;8749;47.076;15.412;2022-08-19T06:09:41;25.60;97.00
17266;DHT22;8749;47.076;15.412;2022-08-19T06:12:09;25.70;96.80
17266;DHT22;8749;47.076;15.412;2022-08-19T06:14:36;25.70;96.30
17266;DHT22;8749;47.076;15.412;2022-08-19T06:17:03;25.70;96.10
17266;DHT22;8749;47.076;15.412;2022-08-19T06:19:31;25.80;96.00
17266;DHT22;8749;47.076;15.412;2022-08-19T06:21:59;25.80;95.80
17266;DHT22;8749;47.076;15.412;2022-08-19T06:24:28;25.70;95.60
17266;DHT22;8749;47.076;15.412;2022-08-19T06:26:56;25.70;95.70
17266;DHT22;8749;47.076;15.412;2022-08-19T06:29:25;25.70;95.80
17266;DHT22;8749;47.076;15.412;2022-08-19T06:31:55;25.70;95.60
17266;DHT22;8749;47.076;15.412;2022-08-19T06:34:23;25.80;95.70
17266;DHT22;8749;47.076;15.412;2022-08-19T06:36:51;25.80;95.40
17266;DHT22;8749;47.076;15.412;2022-08-19T06:39:21;25.80;95.40
17266;DHT22;8749;47.076;15.412;2022-08-19T06:41:52;25.80;95.40
17266;DHT22;8749;47.076;15.412;2022-08-19T06:44:20;25.80;95.20
17266;DHT22;8749;47.076;15.412;2022-08-19T06:46:50;25.90;94.90
17266;DHT22;8749;47.076;15.412;2022-08-19T06:49:17;25.90;94.80
17266;DHT22;8749;47.076;15.412;2022-08-19T06:51:46;26.00;94.50
17266;DHT22;8749;47.076;15.412;2022-08-19T06:54:13;26.10;94.30
17266;DHT22;8749;47.076;15.412;2022-08-19T06:56:40;26.20;94.30
17266;DHT22;8749;47.076;15.412;2022-08-19T06:59:10;26.30;94.30
17266;DHT22;8749;47.076;15.412;2022-08-19T07:01:38;26.40;94.50
17266;DHT22;8749;47.076;15.412;2022-08-19T07:04:08;26.50;94.60
17266;DHT22;8749;47.076;15.412;2022-08-19T07:06:36;26.50;94.60
17266;DHT22;8749;47.076;15.412;2022-08-19T07:09:04;26.50;94.50
17266;DHT22;8749;47.076;15.412;2022-08-19T07:11:31;26.10;95.10
17266;DHT22;8749;47.076;15.412;2022-08-19T07:13:59;25.90;95.50
17266;DHT22;8749;47.076;15.412;2022-08-19T07:16:26;25.80;95.80
17266;DHT22;8749;47.076;15.412;2022-08-19T07:18:53;25.60;96.10
17266;DHT22;8749;47.076;15.412;2022-08-19T07:21:25;25.50;96.20
17266;DHT22;8749;47.076;15.412;2022-08-19T07:23:54;25.40;96.40
17266;DHT22;8749;47.076;15.412;2022-08-19T07:26:24;25.20;96.90
17266;DHT22;8749;47.076;15.412;2022-08-19T07:28:51;25.20;96.50
17266;DHT22;8749;47.076;15.412;2022-08-19T07:31:21;25.30;96.30
17266;DHT22;8749;47.076;15.412;2022-08-19T07:33:50;25.40;96.10
17266;DHT22;8749;47.076;15.412;2022-08-19T07:36:20;25.50;95.90
17266;DHT22;8749;47.076;15.412;2022-08-19T07:38:50;25.60;95.30
17266;DHT22;8749;47.076;15.412;2022-08-19T07:41:19;25.50;95.70
17266;DHT22;8749;47.076;15.412;2022-08-19T07:43:46;25.50;95.80
17266;DHT22;8749;47.076;15.412;2022-08-19T07:46:13;25.40;96.20
17266;DHT22;8749;47.076;15.412;2022-08-19T07:48:41;25.40;96.50
17266;DHT22;8749;47.076;15.412;2022-08-19T07:51:10;25.10;97.20
17266;DHT22;8749;47.076;15.412;2022-08-19T07:53:38;25.00;97.40
17266;DHT22;8749;47.076;15.412;2022-08-19T07:56:06;24.90;97.80
17266;DHT22;8749;47.076;15.412;2022-08-19T07:58:37;25.10;97.70
17266;DHT22;8749;47.076;15.412;2022-08-19T08:01:06;25.20;97.80
17266;DHT22;8749;47.076;15.412;2022-08-19T08:03:33;25.30;97.70
17266;DHT22;8749;47.076;15.412;2022-08-19T08:06:23;25.40;97.60
17266;DHT22;8749;47.076;15.412;2022-08-19T08:09:08;25.40;97.80
17266;DHT22;8749;47.076;15.412;2022-08-19T08:11:44;25.40;97.80
17266;DHT22;8749;47.076;15.412;2022-08-19T08:14:15;25.50;97.70
17266;DHT22;8749;47.076;15.412;2022-08-19T08:16:43;25.50;97.80
17266;DHT22;8749;47.076;15.412;2022-08-19T08:19:11;25.60;98.50
17266;DHT22;8749;47.076;15.412;2022-08-19T08:21:40;25.60;99.00
17266;DHT22;8749;47.076;15.412;2022-08-19T08:24:08;25.50;99.50
17266;DHT22;8749;47.076;15.412;2022-08-19T08:26:35;25.60;99.90
17266;DHT22;8749;47.076;15.412;2022-08-19T08:29:04;25.60;99.90
17266;DHT22;8749;47.076;15.412;2022-08-19T08:31:33;25.60;99.90
17266;DHT22;8749;47.076;15.412;2022-08-19T08:34:01;25.50;99.90
17266;DHT22;8749;47.076;15.412;2022-08-19T08:36:28;25.50;99.90
17266;DHT22;8749;47.076;15.412;2022-08-19T08:39:01;25.40;99.90
17266;DHT22;8749;47.076;15.412;2022-08-19T08:41:34;25.50;99.90
17266;DHT22;8749;47.076;15.412;2022-08-19T08:44:03;25.60;99.90
17266;DHT22;8749;47.076;15.412;2022-08-19T08:46:36;25.50;99.90
17266;DHT22;8749;47.076;15.412;2022-08-19T08:49:15;25.50;99.90
17266;DHT22;8749;47.076;15.412;2022-08-19T08:51:48;25.60;99.90
17266;DHT22;8749;47.076;15.412;2022-08-19T08:54:20;25.50;99.90
17266;DHT22;8749;47.076;15.412;2022-08-19T08:56:49;25.50;99.90
17266;DHT22;8749;47.076;15.412;2022-08-19T08:59:23;25.30;99.90
17266;DHT22;8749;47.076;15.412;2022-08-19T09:01:52;25.60;99.90
17266;DHT22;8749;47.076;15.412;2022-08-19T09:04:19;25.70;99.90
17266;DHT22;8749;47.076;15.412;2022-08-19T09:06:51;25.90;99.90
17266;DHT22;8749;47.076;15.412;2022-08-19T09:09:31;26.00;99.90
17266;DHT22;8749;47.076;15.412;2022-08-19T09:12:06;26.10;99.90
17266;DHT22;8749;47.076;15.412;2022-08-19T09:14:43;26.10;99.90
17266;DHT22;8749;47.076;15.412;2022-08-19T09:17:13;26.10;99.90
17266;DHT22;8749;47.076;15.412;2022-08-19T09:19:50;26.10;99.90
17266;DHT22;8749;47.076;15.412;2022-08-19T09:22:17;26.20;99.90
17266;DHT22;8749;47.076;15.412;2022-08-19T09:24:47;26.30;99.90
17266;DHT22;8749;47.076;15.412;2022-08-19T09:27:14;26.00;99.90
17266;DHT22;8749;47.076;15.412;2022-08-19T09:29:42;25.70;99.90
17266;DHT22;8749;47.076;15.412;2022-08-19T09:32:09;25.80;99.90
17266;DHT22;8749;47.076;15.412;2022-08-19T09:34:36;25.90;99.90
17266;DHT22;8749;47.076;15.412;2022-08-19T09:37:03;26.00;99.90
17266;DHT22;8749;47.076;15.412;2022-08-19T09:39:32;26.10;99.90
17266;DHT22;8749;47.076;15.412;2022-08-19T09:41:59;26.00;99.90
17266;DHT22;8749;47.076;15.412;2022-08-19T09:44:26;26.00;99.90
17266;DHT22;8749;47.076;15.412;2022-08-19T09:46:54;26.10;99.90
17266;DHT22;8749;47.076;15.412;2022-08-19T09:49:22;26.10;99.90
17266;DHT22;8749;47.076;15.412;2022-08-19T09:51:50;26.10;99.90
17266;DHT22;8749;47.076;15.412;2022-08-19T09:54:17;26.10;99.90
17266;DHT22;8749;47.076;15.412;2022-08-19T09:56:44;26.10;99.90
17266;DHT22;8749;47.076;15.412;2022-08-19T09:59:11;26.00;99.90
17266;DHT22;8749;47.076;15.412;2022-08-19T10:01:38;25.90;99.90
17266;DHT22;8749;47.076;15.412;2022-08-19T10:04:07;25.90;99.90
17266;DHT22;8749;47.076;15.412;2022-08-19T10:06:36;25.90;99.90
17266;DHT22;8749;47.076;15.412;2022-08-19T10:09:05;26.10;99.90
17266;DHT22;8749;47.076;15.412;2022-08-19T10:11:33;26.20;99.90
17266;DHT22;8749;47.076;15.412;2022-08-19T10:14:03;26.30;99.90
17266;DHT22;8749;47.076;15.412;2022-08-19T10:16:31;26.50;99.90
17266;DHT22;8749;47.076;15.412;2022-08-19T10:18:58;26.50;99.90
17266;DHT22;8749;47.076;15.412;2022-08-19T10:21:29;26.70;99.90
17266;DHT22;8749;47.076;15.412;2022-08-19T10:23:58;26.70;99.90
17266;DHT22;8749;47.076;15.412;2022-08-19T10:26:27;26.80;99.90
17266;DHT22;8749;47.076;15.412;2022-08-19T10:28:55;26.80;99.90
17266;DHT22;8749;47.076;15.412;2022-08-19T10:31:25;26.80;99.90
17266;DHT22;8749;47.076;15.412;2022-08-19T10:33:53;26.70;99.90
17266;DHT22;8749;47.076;15.412;2022-08-19T10:36:25;26.70;99.90
17266;DHT22;8749;47.076;15.412;2022-08-19T10:38:56;26.60;99.90
17266;DHT22;8749;47.076;15.412;2022-08-19T10:41:27;26.70;99.90
17266;DHT22;8749;47.076;15.412;2022-08-19T10:43:55;26.80;99.90
17266;DHT22;8749;47.076;15.412;2022-08-19T10:46:24;26.90;99.90
17266;DHT22;8749;47.076;15.412;2022-08-19T10:48:53;27.10;99.90
17266;DHT22;8749;47.076;15.412;2022-08-19T10:51:21;27.30;99.90
17266;DHT22;8749;47.076;15.412;2022-08-19T10:54:07;27.50;99.90
17266;DHT22;8749;47.076;15.412;2022-08-19T10:56:35;27.70;99.90
17266;DHT22;8749;47.076;15.412;2022-08-19T10:59:23;27.80;99.90
17266;DHT22;8749;47.076;15.412;2022-08-19T11:01:51;27.70;99.90
17266;DHT22;8749;47.076;15.412;2022-08-19T11:06:48;27.80;99.90
17266;DHT22;8749;47.076;15.412;2022-08-19T11:09:17;27.90;99.90
17266;DHT22;8749;47.076;15.412;2022-08-19T11:11:44;27.90;99.90
17266;DHT22;8749;47.076;15.412;2022-08-19T11:14:14;27.90;99.90
17266;DHT22;8749;47.076;15.412;2022-08-19T11:16:42;28.00;99.90
17266;DHT22;8749;47.076;15.412;2022-08-19T11:19:10;28.20;99.90
17266;DHT22;8749;47.076;15.412;2022-08-19T11:21:39;28.30;99.90
17266;DHT22;8749;47.076;15.412;2022-08-19T11:24:09;28.40;99.90
17266;DHT22;8749;47.076;15.412;2022-08-19T11:26:38;28.60;99.90
17266;DHT22;8749;47.076;15.412;2022-08-19T11:29:07;28.70;99.90
17266;DHT22;8749;47.076;15.412;2022-08-19T11:31:37;28.80;99.90
17266;DHT22;8749;47.076;15.412;2022-08-19T11:34:06;28.70;99.90
17266;DHT22;8749;47.076;15.412;2022-08-19T11:36:33;28.70;99.80
17266;DHT22;8749;47.076;15.412;2022-08-19T11:39:02;28.60;99.70
17266;DHT22;8749;47.076;15.412;2022-08-19T11:41:29;28.60;99.40
17266;DHT22;8749;47.076;15.412;2022-08-19T11:43:58;28.60;97.80
17266;DHT22;8749;47.076;15.412;2022-08-19T11:46:26;28.70;97.10
17266;DHT22;8749;47.076;15.412;2022-08-19T11:48:54;28.80;96.70
17266;DHT22;8749;47.076;15.412;2022-08-19T11:51:23;28.90;96.60
17266;DHT22;8749;47.076;15.412;2022-08-19T11:53:51;29.10;96.40
17266;DHT22;8749;47.076;15.412;2022-08-19T11:56:19;29.20;96.00
17266;DHT22;8749;47.076;15.412;2022-08-19T11:58:47;29.30;95.90
17266;DHT22;8749;47.076;15.412;2022-08-19T12:01:18;29.30;95.30
17266;DHT22;8749;47.076;15.412;2022-08-19T12:03:47;29.40;95.30
17266;DHT22;8749;47.076;15.412;2022-08-19T12:06:17;29.50;95.20
17266;DHT22;8749;47.076;15.412;2022-08-19T12:08:45;29.70;95.20
17266;DHT22;8749;47.076;15.412;2022-08-19T12:11:13;29.90;94.70
17266;DHT22;8749;47.076;15.412;2022-08-19T12:13:41;30.00;93.00
17266;DHT22;8749;47.076;15.412;2022-08-19T12:16:11;29.80;91.70
17266;DHT22;8749;47.076;15.412;2022-08-19T12:18:40;29.60;91.60
17266;DHT22;8749;47.076;15.412;2022-08-19T12:21:09;29.50;92.00
17266;DHT22;8749;47.076;15.412;2022-08-19T12:23:39;29.60;92.20
17266;DHT22;8749;47.076;15.412;2022-08-19T12:26:06;29.40;92.00
17266;DHT22;8749;47.076;15.412;2022-08-19T12:28:33;29.40;92.50
17266;DHT22;8749;47.076;15.412;2022-08-19T12:31:00;29.70;91.60
17266;DHT22;8749;47.076;15.412;2022-08-19T12:33:27;29.90;90.40
17266;DHT22;8749;47.076;15.412;2022-08-19T12:36:00;30.20;89.60
17266;DHT22;8749;47.076;15.412;2022-08-19T12:38:28;30.60;88.40
17266;DHT22;8749;47.076;15.412;2022-08-19T12:40:56;30.70;86.90
17266;DHT22;8749;47.076;15.412;2022-08-19T12:43:22;30.80;87.20
17266;DHT22;8749;47.076;15.412;2022-08-19T12:45:49;30.90;86.00
17266;DHT22;8749;47.076;15.412;2022-08-19T12:48:17;31.00;86.20
17266;DHT22;8749;47.076;15.412;2022-08-19T12:50:45;31.10;84.50
17266;DHT22;8749;47.076;15.412;2022-08-19T12:53:14;31.20;81.80
17266;DHT22;8749;47.076;15.412;2022-08-19T12:55:42;31.20;81.00
17266;DHT22;8749;47.076;15.412;2022-08-19T12:58:09;31.30;81.60
17266;DHT22;8749;47.076;15.412;2022-08-19T13:00:36;31.60;81.10
17266;DHT22;8749;47.076;15.412;2022-08-19T13:03:03;31.80;81.40
17266;DHT22;8749;47.076;15.412;2022-08-19T13:05:31;32.20;81.60
17266;DHT22;8749;47.076;15.412;2022-08-19T13:08:00;32.50;81.10
17266;DHT22;8749;47.076;15.412;2022-08-19T13:10:30;32.60;79.30
17266;DHT22;8749;47.076;15.412;2022-08-19T13:13:02;32.50;79.80
17266;DHT22;8749;47.076;15.412;2022-08-19T13:15:33;32.50;78.80
17266;DHT22;8749;47.076;15.412;2022-08-19T13:18:00;32.50;79.20
17266;DHT22;8749;47.076;15.412;2022-08-19T13:20:27;32.60;78.50
17266;DHT22;8749;47.076;15.412;2022-08-19T13:22:54;32.70;78.40
17266;DHT22;8749;47.076;15.412;2022-08-19T13:25:23;32.60;77.90
17266;DHT22;8749;47.076;15.412;2022-08-19T13:27:52;32.50;78.60
17266;DHT22;8749;47.076;15.412;2022-08-19T13:30:21;32.20;78.00
17266;DHT22;8749;47.076;15.412;2022-08-19T13:33:05;32.20;77.90
17266;DHT22;8749;47.076;15.412;2022-08-19T13:35:42;32.30;77.20
17266;DHT22;8749;47.076;15.412;2022-08-19T13:38:09;32.20;77.70
17266;DHT22;8749;47.076;15.412;2022-08-19T13:40:36;32.20;77.80
17266;DHT22;8749;47.076;15.412;2022-08-19T13:43:05;32.40;78.10
17266;DHT22;8749;47.076;15.412;2022-08-19T13:45:33;32.60;77.10
17266;DHT22;8749;47.076;15.412;2022-08-19T13:48:03;32.90;77.00
17266;DHT22;8749;47.076;15.412;2022-08-19T13:50:32;33.20;75.50
17266;DHT22;8749;47.076;15.412;2022-08-19T13:53:00;33.70;75.00
17266;DHT22;8749;47.076;15.412;2022-08-19T13:55:28;34.10;74.90
17266;DHT22;8749;47.076;15.412;2022-08-19T13:57:57;34.30;75.40
17266;DHT22;8749;47.076;15.412;2022-08-19T14:00:28;34.50;72.90
17266;DHT22;8749;47.076;15.412;2022-08-19T14:02:57;34.50;72.10
17266;DHT22;8749;47.076;15.412;2022-08-19T14:05:26;34.60;71.20
17266;DHT22;8749;47.076;15.412;2022-08-19T14:07:54;34.70;70.10
17266;DHT22;8749;47.076;15.412;2022-08-19T14:10:21;35.00;69.90
17266;DHT22;8749;47.076;15.412;2022-08-19T14:12:49;35.20;69.60
17266;DHT22;8749;47.076;15.412;2022-08-19T14:15:18;35.50;69.40
17266;DHT22;8749;47.076;15.412;2022-08-19T14:17:47;35.80;69.10
17266;DHT22;8749;47.076;15.412;2022-08-19T14:20:14;35.90;66.90
17266;DHT22;8749;47.076;15.412;2022-08-19T14:22:42;36.00;66.70
17266;DHT22;8749;47.076;15.412;2022-08-19T14:25:12;36.10;67.80
17266;DHT22;8749;47.076;15.412;2022-08-19T14:27:41;36.10;67.30
17266;DHT22;8749;47.076;15.412;2022-08-19T14:30:10;36.20;67.80
17266;DHT22;8749;47.076;15.412;2022-08-19T14:32:37;36.40;65.70
17266;DHT22;8749;47.076;15.412;2022-08-19T14:35:06;36.50;64.70
17266;DHT22;8749;47.076;15.412;2022-08-19T14:37:34;36.40;64.30
17266;DHT22;8749;47.076;15.412;2022-08-19T14:40:01;36.30;64.00
17266;DHT22;8749;47.076;15.412;2022-08-19T14:42:28;36.30;64.60
17266;DHT22;8749;47.076;15.412;2022-08-19T14:44:57;36.30;64.60
17266;DHT22;8749;47.076;15.412;2022-08-19T14:47:25;36.40;64.30
17266;DHT22;8749;47.076;15.412;2022-08-19T14:49:52;36.50;64.70
17266;DHT22;8749;47.076;15.412;2022-08-19T14:52:21;36.50;64.00
17266;DHT22;8749;47.076;15.412;2022-08-19T14:54:48;36.40;65.20
17266;DHT22;8749;47.076;15.412;2022-08-19T14:57:15;36.70;64.10
17266;DHT22;8749;47.076;15.412;2022-08-19T14:59:42;36.90;64.80
17266;DHT22;8749;47.076;15.412;2022-08-19T15:02:09;37.10;63.30
17266;DHT22;8749;47.076;15.412;2022-08-19T15:04:36;37.20;62.50
17266;DHT22;8749;47.076;15.412;2022-08-19T15:07:03;37.50;62.90
17266;DHT22;8749;47.076;15.412;2022-08-19T15:09:32;37.00;62.30
17266;DHT22;8749;47.076;15.412;2022-08-19T15:11:59;36.50;62.60
17266;DHT22;8749;47.076;15.412;2022-08-19T15:14:27;35.80;63.70
17266;DHT22;8749;47.076;15.412;2022-08-19T15:16:59;34.70;66.10
17266;DHT22;8749;47.076;15.412;2022-08-19T15:19:26;33.90;67.60
17266;DHT22;8749;47.076;15.412;2022-08-19T15:21:53;33.90;67.70
17266;DHT22;8749;47.076;15.412;2022-08-19T15:24:21;33.90;68.20
17266;DHT22;8749;47.076;15.412;2022-08-19T15:26:50;34.10;67.80
17266;DHT22;8749;47.076;15.412;2022-08-19T15:29:16;34.30;67.70
17266;DHT22;8749;47.076;15.412;2022-08-19T15:31:43;34.60;67.40
17266;DHT22;8749;47.076;15.412;2022-08-19T15:34:11;34.70;66.90
17266;DHT22;8749;47.076;15.412;2022-08-19T15:36:38;34.60;67.10
17266;DHT22;8749;47.076;15.412;2022-08-19T15:39:05;34.30;67.30
17266;DHT22;8749;47.076;15.412;2022-08-19T15:41:35;33.80;68.40